createdAt,value
2018-12-14T00:00:33.800Z,37.47
2018-12-14T00:02:59.929Z,42.70
2018-12-14T00:05:26.070Z,38.77
2018-12-14T00:07:52.246Z,42.37
2018-12-14T00:10:18.377Z,44.57
2018-12-14T00:12:44.513Z,38.87
2018-12-14T00:15:10.681Z,28.90
2018-12-14T00:17:36.837Z,23.73
2018-12-14T00:20:04.635Z,17.63
2018-12-14T00:22:30.797Z,18.63
2018-12-14T00:24:56.936Z,17.10
2018-12-14T00:27:23.415Z,13.13
2018-12-14T00:29:49.829Z,14.77
2018-12-14T00:32:16.518Z,15.87
2018-12-14T00:34:42.664Z,17.13
2018-12-14T00:37:08.844Z,22.00
2018-12-14T00:39:34.984Z,22.10
2018-12-14T00:42:01.145Z,19.80
2018-12-14T00:44:27.316Z,21.43
2018-12-14T00:46:53.465Z,26.33
2018-12-14T00:49:19.607Z,23.80
2018-12-14T00:51:45.833Z,28.30
2018-12-14T00:54:11.976Z,25.13
2018-12-14T00:56:38.109Z,20.10
2018-12-14T00:59:04.290Z,23.53
2018-12-14T01:01:30.414Z,22.23
2018-12-14T01:03:56.565Z,23.80
2018-12-14T01:06:22.767Z,25.37
2018-12-14T01:08:48.904Z,25.63
2018-12-14T01:11:15.223Z,21.97
2018-12-14T01:13:41.421Z,22.70
2018-12-14T01:16:07.595Z,24.80
2018-12-14T01:18:33.858Z,23.00
2018-12-14T01:21:00.037Z,23.47
2018-12-14T01:23:26.173Z,23.63
2018-12-14T01:25:52.328Z,22.27
2018-12-14T01:28:18.497Z,17.60
2018-12-14T01:30:44.661Z,25.33
2018-12-14T01:33:10.817Z,22.93
2018-12-14T01:35:37.006Z,20.97
2018-12-14T01:38:03.169Z,19.83
2018-12-14T01:40:29.322Z,20.10
2018-12-14T01:42:55.482Z,20.40
2018-12-14T01:45:21.633Z,20.17
2018-12-14T01:47:47.774Z,17.10
2018-12-14T01:50:13.949Z,18.60
2018-12-14T01:52:40.333Z,19.33
2018-12-14T01:55:06.747Z,16.53
2018-12-14T01:57:32.960Z,16.70
2018-12-14T01:59:59.103Z,17.63
2018-12-14T02:02:25.248Z,18.03
2018-12-14T02:04:51.401Z,17.17
2018-12-14T02:07:17.525Z,16.67
2018-12-14T02:09:43.673Z,18.07
2018-12-14T02:12:11.512Z,16.80
2018-12-14T02:14:38.017Z,17.53
2018-12-14T02:17:04.176Z,18.03
2018-12-14T02:19:30.337Z,17.93
2018-12-14T02:21:56.461Z,18.07
2018-12-14T02:24:22.618Z,18.43
2018-12-14T02:26:48.793Z,17.83
2018-12-14T02:29:14.954Z,19.40
2018-12-14T02:31:41.107Z,17.37
2018-12-14T02:34:07.261Z,17.97
2018-12-14T02:36:33.422Z,19.30
2018-12-14T02:38:59.566Z,21.73
2018-12-14T02:41:25.751Z,26.07
2018-12-14T02:43:52.128Z,28.10
2018-12-14T02:46:18.261Z,20.63
2018-12-14T02:48:44.421Z,17.07
2018-12-14T02:51:10.608Z,17.43
2018-12-14T02:53:36.834Z,20.87
2018-12-14T02:56:03.002Z,22.27
2018-12-14T02:58:29.138Z,21.33
2018-12-14T03:00:55.284Z,20.80
2018-12-14T03:03:21.458Z,18.43
2018-12-14T03:05:47.608Z,18.03
2018-12-14T03:08:13.774Z,16.43
2018-12-14T03:10:39.982Z,14.27
2018-12-14T03:13:06.242Z,15.33
2018-12-14T03:15:32.382Z,17.47
2018-12-14T03:17:58.547Z,14.90
2018-12-14T03:20:24.725Z,21.13
2018-12-14T03:22:50.851Z,14.20
2018-12-14T03:25:17.010Z,12.30
2018-12-14T03:27:43.164Z,11.70
2018-12-14T03:30:09.492Z,13.40
2018-12-14T03:32:35.805Z,13.27
2018-12-14T03:35:03.123Z,13.30
2018-12-14T03:37:29.250Z,12.23
2018-12-14T03:39:55.425Z,12.53
2018-12-14T03:42:21.581Z,9.90
2018-12-14T03:44:47.730Z,13.53
2018-12-14T03:47:13.893Z,12.37
2018-12-14T03:49:40.024Z,12.87
2018-12-14T03:52:06.162Z,15.93
2018-12-14T03:54:32.328Z,15.40
2018-12-14T03:56:58.447Z,15.03
2018-12-14T03:59:24.589Z,14.70
2018-12-14T04:01:50.754Z,17.03
2018-12-14T04:04:16.897Z,14.03
2018-12-14T04:06:43.055Z,17.47
2018-12-14T04:09:09.237Z,23.67
2018-12-14T04:11:35.361Z,17.50
2018-12-14T04:14:01.532Z,24.20
2018-12-14T04:16:27.693Z,25.97
2018-12-14T04:18:53.833Z,27.40
2018-12-14T04:21:19.980Z,18.47
2018-12-14T04:23:46.163Z,26.97
2018-12-14T04:26:12.312Z,26.50
2018-12-14T04:28:38.438Z,32.30
2018-12-14T04:31:04.663Z,32.10
2018-12-14T04:33:31.146Z,30.83
2018-12-14T04:35:57.524Z,31.40
2018-12-14T04:38:23.717Z,32.50
2018-12-14T04:40:49.880Z,28.03
2018-12-14T04:43:16.019Z,29.43
2018-12-14T04:45:42.210Z,27.07
2018-12-14T04:48:08.392Z,25.27
2018-12-14T04:50:34.529Z,29.47
2018-12-14T04:53:00.710Z,32.90
2018-12-14T04:55:26.853Z,46.87
2018-12-14T04:57:53.010Z,41.37
2018-12-14T05:00:19.197Z,35.27
2018-12-14T05:02:45.412Z,34.70
2018-12-14T05:05:11.644Z,35.00
2018-12-14T05:07:37.835Z,44.97
2018-12-14T05:10:04.738Z,195.17
2018-12-14T05:12:30.878Z,99.80
2018-12-14T05:14:57.082Z,69.73
2018-12-14T05:17:23.361Z,75.60
2018-12-14T05:19:49.508Z,70.40
2018-12-14T05:22:15.696Z,62.33
2018-12-14T05:24:41.862Z,58.13
2018-12-14T05:27:08.442Z,52.30
2018-12-14T05:29:34.630Z,50.07
2018-12-14T05:32:00.782Z,50.00
2018-12-14T05:34:26.928Z,54.33
2018-12-14T05:36:53.113Z,57.93
2018-12-14T05:39:19.245Z,90.40
2018-12-14T05:41:45.384Z,48.47
2018-12-14T05:44:11.580Z,47.10
2018-12-14T05:46:37.825Z,42.53
2018-12-14T05:49:03.944Z,37.53
2018-12-14T05:51:30.090Z,35.53
2018-12-14T05:53:56.231Z,39.10
2018-12-14T05:56:22.917Z,40.13
2018-12-14T05:58:49.112Z,38.13
2018-12-14T06:01:15.263Z,54.87
2018-12-14T06:03:41.407Z,43.87
2018-12-14T06:06:07.589Z,47.80
2018-12-14T06:08:33.709Z,40.40
2018-12-14T06:10:59.862Z,44.17
2018-12-14T06:13:26.026Z,45.07
2018-12-14T06:15:52.167Z,56.13
2018-12-14T06:18:18.342Z,81.20
2018-12-14T06:20:44.508Z,61.70
2018-12-14T06:23:10.676Z,57.17
2018-12-14T06:25:36.834Z,51.07
2018-12-14T06:28:03.022Z,51.47
2018-12-14T06:30:29.172Z,54.10
2018-12-14T06:32:55.293Z,80.07
2018-12-14T06:35:21.489Z,56.57
2018-12-14T06:37:47.628Z,55.90
2018-12-14T06:40:13.772Z,49.03
2018-12-14T06:42:39.937Z,52.17
2018-12-14T06:45:07.080Z,51.60
2018-12-14T06:47:33.255Z,75.67
2018-12-14T06:49:59.438Z,57.47
2018-12-14T06:52:25.597Z,64.73
2018-12-14T06:54:51.746Z,61.83
2018-12-14T06:57:17.916Z,58.37
2018-12-14T06:59:44.126Z,55.93
2018-12-14T07:02:10.372Z,51.03
2018-12-14T07:04:36.545Z,51.83
2018-12-14T07:07:04.227Z,52.17
2018-12-14T07:09:30.741Z,58.50
2018-12-14T07:11:56.928Z,50.27
2018-12-14T07:14:23.063Z,45.50
2018-12-14T07:16:49.201Z,48.27
2018-12-14T07:19:15.389Z,49.43
2018-12-14T07:21:41.519Z,48.80
2018-12-14T07:24:07.917Z,48.90
2018-12-14T07:26:34.640Z,50.60
2018-12-14T07:29:01.269Z,55.83
2018-12-14T07:31:27.549Z,56.67
2018-12-14T07:33:53.717Z,52.60
2018-12-14T07:36:19.933Z,41.60
2018-12-14T07:38:48.215Z,30.53
2018-12-14T07:41:14.385Z,35.43
2018-12-14T07:43:40.541Z,31.20
2018-12-14T07:46:06.677Z,26.80
2018-12-14T07:48:32.853Z,32.97
2018-12-14T07:50:59.000Z,38.47
2018-12-14T07:53:25.281Z,34.57
2018-12-14T07:55:51.457Z,33.70
2018-12-14T07:58:17.612Z,30.43
2018-12-14T08:00:43.776Z,29.53
2018-12-14T08:03:10.000Z,25.60
2018-12-14T08:05:36.137Z,21.10
2018-12-14T08:08:02.267Z,23.20
2018-12-14T08:10:28.448Z,21.77
2018-12-14T08:12:54.921Z,21.50
2018-12-14T08:15:21.242Z,22.23
2018-12-14T08:17:47.409Z,22.20
2018-12-14T08:20:17.150Z,23.00
2018-12-14T08:22:41.722Z,26.47
2018-12-14T08:25:07.950Z,23.10
2018-12-14T08:27:34.102Z,21.03
2018-12-14T08:30:00.285Z,24.43
2018-12-14T08:32:26.489Z,24.83
2018-12-14T08:34:52.657Z,25.87
2018-12-14T08:37:18.793Z,18.40
2018-12-14T08:39:44.945Z,20.07
2018-12-14T08:42:11.068Z,18.17
2018-12-14T08:44:37.229Z,18.57
2018-12-14T08:47:03.405Z,17.90
2018-12-14T08:49:29.563Z,20.37
2018-12-14T08:51:55.704Z,16.83
2018-12-14T08:54:21.886Z,17.70
2018-12-14T08:56:48.025Z,17.83
2018-12-14T08:59:14.153Z,19.23
2018-12-14T09:01:40.338Z,21.47
2018-12-14T09:04:06.497Z,17.67
2018-12-14T09:06:32.651Z,16.20
2018-12-14T09:08:58.829Z,14.73
2018-12-14T09:11:24.993Z,15.23
2018-12-14T09:13:51.135Z,17.90
2018-12-14T09:16:17.313Z,31.07
2018-12-14T09:18:43.449Z,36.03
2018-12-14T09:21:09.616Z,34.67
2018-12-14T09:23:35.809Z,46.73
2018-12-14T09:26:02.085Z,37.87
2018-12-14T09:28:28.207Z,34.33
2018-12-14T09:30:54.359Z,28.70
2018-12-14T09:33:20.510Z,29.83
2018-12-14T09:35:46.647Z,30.83
2018-12-14T09:38:12.838Z,34.80
2018-12-14T09:40:38.982Z,33.93
2018-12-14T09:43:05.185Z,36.63
2018-12-14T09:45:31.407Z,34.93
2018-12-14T09:47:57.586Z,33.93
2018-12-14T09:50:23.725Z,30.20
2018-12-14T09:52:49.873Z,34.00
2018-12-14T09:55:15.997Z,30.70
2018-12-14T09:57:42.165Z,21.70
2018-12-14T10:00:08.665Z,18.43
2018-12-14T10:02:34.798Z,20.30
2018-12-14T10:05:00.934Z,22.23
2018-12-14T10:07:27.118Z,19.93
2018-12-14T10:09:53.274Z,18.97
2018-12-14T10:12:26.453Z,21.60
2018-12-14T10:14:52.613Z,18.70
2018-12-14T10:17:18.777Z,20.00
2018-12-14T10:19:44.909Z,13.63
2018-12-14T10:22:11.070Z,15.50
2018-12-14T10:24:37.197Z,13.13
2018-12-14T10:27:03.346Z,15.07
2018-12-14T10:29:29.517Z,11.67
2018-12-14T10:31:55.656Z,15.67
2018-12-14T10:34:21.784Z,13.10
2018-12-14T10:36:47.987Z,11.77
2018-12-14T10:39:14.149Z,15.60
2018-12-14T10:41:40.320Z,16.60
2018-12-14T10:44:07.497Z,10.63
2018-12-14T10:46:34.193Z,13.50
2018-12-14T10:49:00.377Z,11.57
2018-12-14T10:51:26.623Z,11.20
2018-12-14T10:53:52.773Z,10.73
2018-12-14T10:56:18.937Z,11.90
2018-12-14T10:58:45.112Z,13.62
2018-12-14T11:01:17.285Z,13.40
2018-12-14T11:03:43.408Z,16.13
2018-12-14T11:06:09.579Z,12.17
2018-12-14T11:08:35.714Z,9.17
2018-12-14T11:11:01.860Z,10.27
2018-12-14T11:13:28.031Z,12.57
2018-12-14T11:15:54.197Z,15.83
2018-12-14T11:18:20.333Z,16.13
2018-12-14T11:20:46.655Z,16.77
2018-12-14T11:23:16.882Z,16.57
2018-12-14T11:25:43.044Z,20.73
2018-12-14T11:28:09.225Z,18.47
2018-12-14T11:30:35.380Z,16.10
2018-12-14T11:33:01.538Z,13.47
2018-12-14T11:35:27.847Z,14.63
2018-12-14T11:37:54.075Z,16.10
2018-12-14T11:40:20.303Z,15.77
2018-12-14T11:42:46.736Z,15.47
2018-12-14T11:45:12.901Z,17.53
2018-12-14T11:47:45.841Z,19.67
2018-12-14T11:50:12.012Z,13.13
2018-12-14T11:52:38.137Z,12.80
2018-12-14T11:55:06.072Z,12.40
2018-12-14T11:57:32.205Z,16.30
2018-12-14T11:59:58.324Z,17.07
2018-12-14T12:02:24.509Z,17.10
2018-12-14T12:04:50.663Z,15.47
2018-12-14T12:07:16.789Z,17.20
2018-12-14T12:09:42.954Z,19.47
2018-12-14T12:12:09.085Z,16.80
2018-12-14T12:14:35.222Z,18.53
2018-12-14T12:17:01.392Z,19.27
2018-12-14T12:19:27.573Z,14.03
2018-12-14T12:21:53.766Z,18.93
2018-12-14T12:24:19.926Z,33.10
2018-12-14T12:26:46.065Z,18.73
2018-12-14T12:29:12.212Z,26.37
2018-12-14T12:31:38.388Z,26.57
2018-12-14T12:34:04.513Z,18.87
2018-12-14T12:36:30.677Z,22.07
2018-12-14T12:38:56.856Z,15.17
2018-12-14T12:41:23.001Z,18.43
2018-12-14T12:43:49.157Z,29.80
2018-12-14T12:46:15.416Z,26.07
2018-12-14T12:48:41.843Z,21.63
2018-12-14T12:51:07.987Z,26.43
2018-12-14T12:53:34.161Z,29.10
2018-12-14T12:56:00.313Z,26.47
2018-12-14T12:58:26.458Z,24.37
2018-12-14T13:00:52.701Z,22.77
2018-12-14T13:03:19.011Z,19.90
2018-12-14T13:05:45.255Z,20.60
2018-12-14T13:08:11.441Z,17.87
2018-12-14T13:10:37.587Z,12.97
2018-12-14T13:13:03.854Z,13.50
2018-12-14T13:15:30.029Z,14.73
2018-12-14T13:17:56.173Z,12.57
2018-12-14T13:20:22.314Z,16.07
2018-12-14T13:22:48.533Z,16.17
2018-12-14T13:25:14.713Z,19.07
2018-12-14T13:27:40.845Z,15.10
2018-12-14T13:30:07.179Z,13.77
2018-12-14T13:32:33.309Z,11.27
2018-12-14T13:34:59.460Z,13.97
2018-12-14T13:37:25.622Z,18.03
2018-12-14T13:39:51.764Z,16.47
2018-12-14T13:42:17.915Z,18.33
2018-12-14T13:44:46.676Z,17.67
2018-12-14T13:47:12.429Z,16.83
2018-12-14T13:49:38.576Z,19.17
2018-12-14T13:52:04.752Z,21.53
2018-12-14T13:54:30.905Z,19.27
2018-12-14T13:56:57.060Z,19.30
2018-12-14T13:59:23.349Z,22.30
2018-12-14T14:01:49.517Z,18.80
2018-12-14T14:04:22.453Z,18.17
2018-12-14T14:06:48.629Z,20.13
2018-12-14T14:09:14.785Z,20.87
2018-12-14T14:11:40.930Z,19.07
2018-12-14T14:14:07.117Z,26.10
2018-12-14T14:16:33.261Z,26.77
2018-12-14T14:18:59.400Z,20.67
2018-12-14T14:21:25.570Z,21.77
2018-12-14T14:23:51.751Z,19.20
2018-12-14T14:26:17.881Z,19.43
2018-12-14T14:28:44.960Z,25.77
2018-12-14T14:31:11.209Z,30.27
2018-12-14T14:33:37.361Z,32.60
2018-12-14T14:36:03.537Z,38.97
2018-12-14T14:38:29.698Z,35.07
2018-12-14T14:40:55.841Z,29.77
2018-12-14T14:43:22.056Z,33.93
2018-12-14T14:45:48.201Z,40.13
2018-12-14T14:48:14.340Z,32.03
2018-12-14T14:50:40.503Z,33.70
2018-12-14T14:53:06.712Z,42.07
2018-12-14T14:55:32.833Z,39.90
2018-12-14T14:57:59.001Z,38.57
2018-12-14T15:00:32.497Z,37.10
2018-12-14T15:02:58.893Z,44.03
2018-12-14T15:05:25.047Z,71.37
2018-12-14T15:07:51.189Z,46.27
2018-12-14T15:10:17.397Z,53.38
2018-12-14T15:12:43.554Z,44.53
2018-12-14T15:15:09.763Z,44.67
2018-12-14T15:17:35.945Z,41.27
2018-12-14T15:20:02.242Z,49.33
2018-12-14T15:22:28.385Z,76.03
2018-12-14T15:24:54.905Z,71.90
2018-12-14T15:27:21.053Z,73.40
2018-12-14T15:29:47.220Z,63.00
2018-12-14T15:32:13.777Z,85.27
2018-12-14T15:34:39.920Z,85.97
2018-12-14T15:37:06.150Z,89.23
2018-12-14T15:39:32.358Z,99.27
2018-12-14T15:41:58.488Z,94.87
2018-12-14T15:44:24.612Z,84.77
2018-12-14T15:46:50.805Z,81.23
2018-12-14T15:49:16.961Z,94.70
2018-12-14T15:51:43.112Z,89.63
2018-12-14T15:54:09.327Z,74.70
2018-12-14T15:56:35.474Z,73.83
2018-12-14T15:59:01.622Z,72.67
2018-12-14T16:01:27.827Z,69.30
2018-12-14T16:03:53.975Z,76.00
2018-12-14T16:06:20.126Z,43.10
2018-12-14T16:08:46.323Z,59.07
2018-12-14T16:11:12.806Z,57.40
2018-12-14T16:13:38.971Z,55.50
2018-12-14T16:16:05.205Z,76.20
2018-12-14T16:18:31.493Z,89.57
2018-12-14T16:20:57.771Z,134.73
2018-12-14T16:23:24.099Z,85.50
2018-12-14T16:25:50.255Z,123.00
2018-12-14T16:28:17.280Z,104.53
2018-12-14T16:30:43.457Z,107.87
2018-12-14T16:33:09.715Z,119.00
2018-12-14T16:35:35.879Z,127.23
2018-12-14T16:38:02.078Z,128.73
2018-12-14T16:40:28.234Z,122.30
2018-12-14T16:42:54.378Z,117.07
2018-12-14T16:45:26.270Z,128.33
2018-12-14T16:47:48.717Z,92.57
2018-12-14T16:50:14.849Z,113.73
2018-12-14T16:52:41.019Z,70.67
2018-12-14T16:55:07.352Z,95.40
2018-12-14T16:57:33.540Z,86.90
2018-12-14T16:59:59.713Z,85.83
2018-12-14T17:02:25.994Z,98.80
2018-12-14T17:04:52.141Z,95.00
2018-12-14T17:07:18.383Z,109.17
2018-12-14T17:09:44.532Z,104.73
2018-12-14T17:12:10.723Z,99.20
2018-12-14T17:14:37.064Z,103.77
2018-12-14T17:17:03.258Z,98.80
2018-12-14T17:19:29.485Z,105.07
2018-12-14T17:21:55.669Z,99.67
2018-12-14T17:24:21.812Z,111.73
2018-12-14T17:26:48.060Z,142.37
2018-12-14T17:29:14.239Z,149.93
2018-12-14T17:31:40.397Z,145.67
2018-12-14T17:34:13.548Z,148.17
2018-12-14T17:36:39.841Z,125.03
2018-12-14T17:39:06.273Z,81.37
2018-12-14T17:41:32.521Z,79.50
2018-12-14T17:43:58.716Z,89.63
2018-12-14T17:46:24.870Z,82.97
2018-12-14T17:48:51.011Z,247.60
2018-12-14T17:51:17.205Z,177.30
2018-12-14T17:53:43.359Z,100.73
2018-12-14T17:56:09.557Z,392.13
2018-12-14T17:58:35.925Z,433.53
2018-12-14T18:01:02.151Z,156.50
2018-12-14T18:03:28.324Z,464.87
2018-12-14T18:05:54.499Z,117.60
2018-12-14T18:08:20.644Z,307.03
2018-12-14T18:10:47.029Z,320.77
2018-12-14T18:13:13.357Z,120.83
2018-12-14T18:15:46.168Z,101.97
2018-12-14T18:18:07.966Z,115.60
2018-12-14T18:20:34.157Z,164.83
2018-12-14T18:23:00.421Z,193.03
2018-12-14T18:25:26.584Z,95.83
2018-12-14T18:27:52.777Z,58.10
2018-12-14T18:30:18.936Z,52.43
2018-12-14T18:32:45.077Z,66.30
2018-12-14T18:35:11.371Z,59.13
2018-12-14T18:37:37.520Z,58.50
2018-12-14T18:40:05.613Z,47.57
2018-12-14T18:42:31.881Z,47.63
2018-12-14T18:44:58.120Z,53.30
2018-12-14T18:47:24.370Z,55.27
2018-12-14T18:49:50.582Z,53.10
2018-12-14T18:52:16.713Z,61.63
2018-12-14T18:54:42.872Z,62.60
2018-12-14T18:57:09.077Z,38.80
2018-12-14T18:59:35.480Z,47.83
2018-12-14T19:02:01.633Z,51.37
2018-12-14T19:04:27.788Z,51.03
2018-12-14T19:06:54.593Z,47.47
2018-12-14T19:09:20.740Z,56.63
2018-12-14T19:11:47.026Z,54.13
2018-12-14T19:14:13.285Z,95.80
2018-12-14T19:16:39.513Z,43.63
2018-12-14T19:19:05.676Z,58.77
2018-12-14T19:21:31.933Z,73.73
2018-12-14T19:23:58.197Z,114.83
2018-12-14T19:26:24.406Z,81.80
2018-12-14T19:28:51.867Z,75.00
2018-12-14T19:31:18.092Z,72.80
2018-12-14T19:33:44.308Z,71.37
2018-12-14T19:36:10.454Z,85.73
2018-12-14T19:38:36.633Z,86.83
2018-12-14T19:41:03.004Z,81.83
2018-12-14T19:43:29.130Z,83.17
2018-12-14T19:45:55.476Z,84.47
2018-12-14T19:48:21.653Z,87.37
2018-12-14T19:50:47.916Z,93.00
2018-12-14T19:53:14.045Z,115.77
2018-12-14T19:55:40.357Z,102.00
2018-12-14T19:58:06.581Z,109.17
2018-12-14T20:00:32.809Z,111.23
2018-12-14T20:02:59.275Z,115.10
2018-12-14T20:05:25.503Z,113.17
2018-12-14T20:07:51.658Z,94.60
2018-12-14T20:10:17.958Z,90.27
2018-12-14T20:12:44.153Z,96.43
2018-12-14T20:15:10.281Z,104.60
2018-12-14T20:17:36.609Z,113.30
2018-12-14T20:20:04.195Z,116.10
2018-12-14T20:22:30.333Z,97.67
2018-12-14T20:24:56.725Z,107.87
2018-12-14T20:27:22.952Z,112.23
2018-12-14T20:29:49.237Z,88.90
2018-12-14T20:32:15.613Z,95.43
2018-12-14T20:34:41.874Z,86.53
2018-12-14T20:37:08.015Z,79.97
2018-12-14T20:39:34.168Z,71.37
2018-12-14T20:42:00.353Z,91.33
2018-12-14T20:44:26.493Z,101.33
2018-12-14T20:46:52.777Z,100.97
2018-12-14T20:49:18.932Z,100.37
2018-12-14T20:51:45.234Z,99.73
2018-12-14T20:54:11.474Z,94.43
2018-12-14T20:56:37.624Z,95.57
2018-12-14T20:59:03.947Z,89.07
2018-12-14T21:01:30.142Z,89.07
2018-12-14T21:03:56.404Z,76.77
2018-12-14T21:06:22.599Z,101.13
2018-12-14T21:08:48.809Z,91.80
2018-12-14T21:11:14.942Z,90.00
2018-12-14T21:13:41.069Z,93.67
2018-12-14T21:16:07.234Z,83.50
2018-12-14T21:18:33.534Z,73.57
2018-12-14T21:20:59.677Z,73.43
2018-12-14T21:23:25.840Z,72.77
2018-12-14T21:25:52.043Z,64.77
2018-12-14T21:28:18.173Z,61.20
2018-12-14T21:30:44.360Z,56.20
2018-12-14T21:33:10.506Z,52.93
2018-12-14T21:35:36.637Z,47.53
2018-12-14T21:38:02.814Z,50.47
2018-12-14T21:40:29.000Z,58.60
2018-12-14T21:42:55.207Z,54.40
2018-12-14T21:45:21.456Z,52.63
2018-12-14T21:47:47.605Z,52.70
2018-12-14T21:50:13.873Z,63.03
2018-12-14T21:52:40.140Z,70.97
2018-12-14T21:55:06.421Z,64.17
2018-12-14T21:57:32.783Z,53.00
2018-12-14T21:59:58.949Z,52.37
2018-12-14T22:02:25.114Z,52.47
2018-12-14T22:04:51.447Z,51.03
2018-12-14T22:07:17.629Z,42.47
2018-12-14T22:09:43.941Z,48.50
2018-12-14T22:12:10.167Z,50.83
2018-12-14T22:14:36.320Z,34.27
2018-12-14T22:17:02.797Z,44.30
2018-12-14T22:19:28.936Z,42.37
2018-12-14T22:21:55.109Z,43.60
2018-12-14T22:24:21.257Z,47.97
2018-12-14T22:26:47.500Z,52.33
2018-12-14T22:29:13.744Z,44.67
2018-12-14T22:31:39.881Z,42.77
2018-12-14T22:34:06.200Z,40.73
2018-12-14T22:36:39.581Z,41.07
2018-12-14T22:39:06.217Z,42.07
2018-12-14T22:41:32.445Z,48.67
2018-12-14T22:43:58.672Z,51.27
2018-12-14T22:46:24.805Z,41.37
2018-12-14T22:48:51.131Z,44.17
2018-12-14T22:51:17.323Z,42.73
2018-12-14T22:53:43.473Z,37.43
2018-12-14T22:56:16.485Z,40.00
2018-12-14T22:58:42.797Z,40.47
2018-12-14T23:01:09.025Z,43.43
2018-12-14T23:03:35.172Z,43.53
2018-12-14T23:06:01.481Z,41.17
2018-12-14T23:08:27.634Z,39.67
2018-12-14T23:10:53.972Z,39.23
2018-12-14T23:13:20.148Z,39.63
2018-12-14T23:15:46.393Z,36.73
2018-12-14T23:18:12.657Z,33.80
2018-12-14T23:20:38.835Z,38.83
2018-12-14T23:23:05.077Z,38.87
2018-12-14T23:25:31.232Z,38.03
2018-12-14T23:27:57.529Z,40.77
2018-12-14T23:30:30.568Z,54.27
2018-12-14T23:32:56.694Z,36.80
2018-12-14T23:35:22.973Z,43.03
2018-12-14T23:37:49.128Z,39.30
2018-12-14T23:40:15.282Z,35.23
2018-12-14T23:42:41.470Z,35.37
2018-12-14T23:45:07.685Z,32.57
2018-12-14T23:47:33.940Z,31.53
2018-12-14T23:50:00.106Z,37.97
2018-12-14T23:52:26.397Z,48.23
2018-12-14T23:54:52.627Z,52.63
2018-12-14T23:57:18.801Z,59.33
2018-12-14T23:59:45.082Z,65.43
